createdAt,value
2019-01-14T00:01:34.501Z,23.25
2019-01-14T00:04:08.651Z,22.45
2019-01-14T00:06:43.236Z,23.37
2019-01-14T00:09:23.226Z,22.90
2019-01-14T00:11:53.565Z,23.00
2019-01-14T00:14:27.901Z,21.80
2019-01-14T00:17:02.079Z,23.17
2019-01-14T00:19:36.156Z,23.57
2019-01-14T00:22:10.786Z,23.32
2019-01-14T00:24:45.429Z,22.93
2019-01-14T00:27:20.254Z,22.80
2019-01-14T00:29:54.546Z,22.73
2019-01-14T00:32:30.097Z,22.37
2019-01-14T00:35:04.458Z,20.50
2019-01-14T00:37:38.612Z,21.67
2019-01-14T00:40:15.655Z,21.80
2019-01-14T00:42:49.973Z,22.23
2019-01-14T00:45:24.605Z,22.93
2019-01-14T00:47:58.903Z,21.03
2019-01-14T00:50:33.205Z,22.50
2019-01-14T00:53:07.620Z,22.75
2019-01-14T00:55:42.211Z,21.60
2019-01-14T00:58:16.439Z,21.93
2019-01-14T01:00:51.304Z,22.00
2019-01-14T01:03:26.174Z,21.60
2019-01-14T01:06:00.727Z,20.90
2019-01-14T01:08:35.598Z,20.87
2019-01-14T01:11:10.164Z,20.53
2019-01-14T01:13:44.853Z,22.40
2019-01-14T01:16:18.970Z,21.48
2019-01-14T01:18:53.976Z,22.10
2019-01-14T01:21:28.196Z,21.00
2019-01-14T01:24:02.461Z,20.97
2019-01-14T01:26:37.168Z,21.50
2019-01-14T01:29:11.214Z,21.47
2019-01-14T01:31:45.876Z,21.02
2019-01-14T01:34:20.865Z,21.37
2019-01-14T01:36:55.218Z,22.22
2019-01-14T01:39:29.262Z,21.97
2019-01-14T01:42:03.623Z,20.35
2019-01-14T01:44:38.281Z,21.50
2019-01-14T01:47:12.646Z,20.12
2019-01-14T01:49:47.415Z,20.27
2019-01-14T01:52:21.643Z,20.62
2019-01-14T01:54:56.530Z,21.60
2019-01-14T01:57:31.598Z,20.50
2019-01-14T02:00:06.007Z,20.37
2019-01-14T02:02:40.776Z,19.75
2019-01-14T02:05:15.410Z,20.50
2019-01-14T02:07:49.902Z,19.73
2019-01-14T02:10:25.820Z,19.75
2019-01-14T02:13:00.474Z,20.72
2019-01-14T02:15:35.077Z,20.08
2019-01-14T02:18:09.472Z,19.23
2019-01-14T02:20:43.871Z,18.70
2019-01-14T02:23:18.261Z,19.10
2019-01-14T02:25:52.723Z,18.52
2019-01-14T02:28:27.396Z,17.90
2019-01-14T02:31:01.621Z,19.60
2019-01-14T02:33:36.743Z,19.10
2019-01-14T02:36:11.354Z,18.50
2019-01-14T02:38:46.203Z,22.98
2019-01-14T02:41:20.742Z,18.75
2019-01-14T02:43:55.238Z,18.80
2019-01-14T02:46:29.691Z,18.60
2019-01-14T02:49:04.614Z,18.12
2019-01-14T02:51:38.997Z,17.67
2019-01-14T02:54:13.354Z,18.48
2019-01-14T02:56:47.708Z,18.23
2019-01-14T02:59:22.223Z,18.10
2019-01-14T03:01:56.857Z,18.77
2019-01-14T03:04:31.174Z,17.32
2019-01-14T03:07:05.162Z,18.00
2019-01-14T03:09:39.578Z,17.52
2019-01-14T03:12:14.114Z,18.82
2019-01-14T03:14:48.592Z,18.80
2019-01-14T03:17:23.213Z,17.77
2019-01-14T03:19:57.776Z,18.27
2019-01-14T03:22:32.536Z,17.90
2019-01-14T03:25:07.099Z,18.40
2019-01-14T03:27:41.742Z,19.30
2019-01-14T03:30:18.308Z,19.07
2019-01-14T03:32:53.400Z,18.42
2019-01-14T03:35:27.532Z,19.12
2019-01-14T03:38:02.761Z,18.55
2019-01-14T03:40:36.907Z,18.45
2019-01-14T03:43:11.937Z,18.82
2019-01-14T03:45:46.431Z,18.93
2019-01-14T03:48:21.041Z,18.87
2019-01-14T03:50:55.560Z,18.73
2019-01-14T03:53:29.652Z,19.40
2019-01-14T03:56:04.643Z,19.67
2019-01-14T03:58:39.409Z,18.77
2019-01-14T04:01:14.403Z,19.37
2019-01-14T04:03:49.054Z,19.15
2019-01-14T04:06:23.525Z,20.60
2019-01-14T04:08:57.976Z,19.92
2019-01-14T04:11:32.879Z,21.07
2019-01-14T04:14:07.230Z,19.32
2019-01-14T04:16:41.966Z,19.20
2019-01-14T04:19:16.602Z,18.67
2019-01-14T04:21:51.355Z,19.60
2019-01-14T04:24:25.860Z,19.65
2019-01-14T04:27:00.548Z,20.45
2019-01-14T04:29:34.924Z,21.30
2019-01-14T04:32:09.519Z,19.50
2019-01-14T04:34:44.257Z,20.60
2019-01-14T04:37:21.605Z,20.77
2019-01-14T04:39:55.261Z,19.35
2019-01-14T04:42:29.685Z,20.08
2019-01-14T04:45:04.511Z,20.68
2019-01-14T04:47:39.215Z,22.02
2019-01-14T04:50:16.778Z,20.92
2019-01-14T04:52:50.595Z,22.98
2019-01-14T04:55:25.379Z,21.80
2019-01-14T04:58:00.107Z,20.55
2019-01-14T05:00:34.952Z,21.57
2019-01-14T05:03:09.504Z,21.75
2019-01-14T05:05:44.183Z,21.48
2019-01-14T05:08:18.172Z,21.40
2019-01-14T05:10:52.473Z,22.27
2019-01-14T05:13:27.143Z,22.37
2019-01-14T05:16:02.021Z,21.40
2019-01-14T05:18:36.335Z,22.10
2019-01-14T05:21:11.714Z,21.95
2019-01-14T05:23:46.264Z,22.27
2019-01-14T05:26:21.034Z,20.75
2019-01-14T05:28:55.697Z,21.30
2019-01-14T05:31:30.210Z,22.15
2019-01-14T05:34:04.680Z,22.02
2019-01-14T05:36:39.516Z,21.05
2019-01-14T05:39:14.539Z,20.88
2019-01-14T05:41:49.322Z,21.48
2019-01-14T05:44:24.320Z,19.92
2019-01-14T05:46:59.108Z,20.92
2019-01-14T05:49:33.618Z,20.72
2019-01-14T05:52:08.362Z,20.08
2019-01-14T05:54:43.319Z,20.15
2019-01-14T05:57:18.419Z,20.12
2019-01-14T05:59:53.201Z,20.88
2019-01-14T06:02:28.881Z,20.87
2019-01-14T06:05:03.634Z,19.95
2019-01-14T06:07:44.692Z,19.75
2019-01-14T06:10:13.924Z,20.12
2019-01-14T06:12:48.788Z,19.87
2019-01-14T06:15:23.037Z,20.05
2019-01-14T06:17:57.440Z,19.48
2019-01-14T06:20:33.173Z,19.45
2019-01-14T06:23:07.714Z,19.65
2019-01-14T06:25:42.583Z,19.02
2019-01-14T06:28:16.874Z,19.95
2019-01-14T06:30:52.097Z,19.67
2019-01-14T06:33:26.295Z,19.67
2019-01-14T06:36:01.131Z,19.23
2019-01-14T06:38:35.824Z,19.27
2019-01-14T06:41:10.423Z,21.77
2019-01-14T06:43:45.938Z,19.60
2019-01-14T06:46:20.630Z,19.80
2019-01-14T06:48:55.332Z,18.70
2019-01-14T06:51:30.160Z,18.85
2019-01-14T06:54:04.525Z,17.95
2019-01-14T06:56:39.141Z,18.57
2019-01-14T06:59:13.883Z,19.32
2019-01-14T07:01:48.339Z,20.40
2019-01-14T07:04:24.231Z,19.50
2019-01-14T07:06:58.275Z,19.27
2019-01-14T07:09:35.174Z,19.80
2019-01-14T07:12:09.901Z,18.87
2019-01-14T07:14:43.933Z,18.92
2019-01-14T07:17:19.294Z,17.70
2019-01-14T07:19:53.686Z,18.05
2019-01-14T07:22:28.138Z,18.55
2019-01-14T07:25:02.595Z,18.73
2019-01-14T07:27:36.851Z,18.92
2019-01-14T07:30:13.834Z,19.85
2019-01-14T07:32:48.053Z,18.40
2019-01-14T07:35:22.724Z,17.82
2019-01-14T07:37:57.120Z,18.23
2019-01-14T07:40:34.079Z,17.25
2019-01-14T07:43:08.675Z,15.63
2019-01-14T07:45:43.900Z,16.55
2019-01-14T07:48:17.847Z,15.48
2019-01-14T07:50:52.585Z,16.82
2019-01-14T07:53:26.654Z,17.65
2019-01-14T07:56:01.852Z,16.55
2019-01-14T07:58:36.255Z,15.20
2019-01-14T08:01:10.704Z,15.08
2019-01-14T08:03:45.262Z,15.58
2019-01-14T08:06:19.964Z,15.50
2019-01-14T08:08:54.279Z,15.20
2019-01-14T08:11:28.710Z,16.05
2019-01-14T08:14:03.363Z,15.20
2019-01-14T08:16:38.222Z,15.23
2019-01-14T08:19:12.524Z,15.95
2019-01-14T08:21:46.783Z,14.30
2019-01-14T08:24:21.424Z,15.60
2019-01-14T08:26:55.958Z,15.08
2019-01-14T08:29:30.684Z,14.93
2019-01-14T08:32:05.295Z,15.58
2019-01-14T08:34:40.196Z,15.65
2019-01-14T08:37:14.520Z,14.53
2019-01-14T08:39:49.583Z,14.60
2019-01-14T08:42:24.108Z,14.78
2019-01-14T08:44:58.869Z,14.78
2019-01-14T08:47:35.097Z,14.80
2019-01-14T08:50:10.678Z,14.15
2019-01-14T08:52:45.465Z,13.30
2019-01-14T08:55:20.104Z,14.23
2019-01-14T08:57:54.930Z,13.98
2019-01-14T09:00:29.283Z,14.03
2019-01-14T09:03:03.732Z,13.08
2019-01-14T09:05:38.126Z,14.50
2019-01-14T09:08:12.460Z,14.63
2019-01-14T09:10:47.172Z,14.53
2019-01-14T09:13:21.674Z,14.13
2019-01-14T09:15:55.984Z,13.22
2019-01-14T09:18:30.564Z,14.35
2019-01-14T09:21:05.097Z,13.80
2019-01-14T09:23:40.300Z,14.20
2019-01-14T09:26:14.765Z,13.53
2019-01-14T09:28:49.410Z,14.98
2019-01-14T09:31:25.211Z,13.72
2019-01-14T09:34:05.671Z,13.78
2019-01-14T09:36:40.390Z,15.38
2019-01-14T09:39:15.543Z,13.80
2019-01-14T09:41:49.813Z,14.65
2019-01-14T09:44:24.386Z,14.00
2019-01-14T09:46:59.093Z,14.30
2019-01-14T09:49:33.974Z,14.83
2019-01-14T09:52:08.771Z,14.20
2019-01-14T09:54:43.360Z,15.15
2019-01-14T09:57:18.052Z,15.13
2019-01-14T09:59:53.781Z,15.00
2019-01-14T10:02:28.400Z,14.73
2019-01-14T10:05:03.573Z,15.25
2019-01-14T10:07:38.266Z,13.35
2019-01-14T10:10:15.204Z,14.80
2019-01-14T10:12:49.669Z,14.38
2019-01-14T10:15:30.447Z,14.98
2019-01-14T10:18:07.973Z,15.15
2019-01-14T10:20:42.587Z,14.33
2019-01-14T10:23:16.833Z,15.38
2019-01-14T10:25:51.004Z,14.85
2019-01-14T10:28:25.480Z,13.72
2019-01-14T10:31:00.231Z,15.13
2019-01-14T10:33:34.702Z,14.70
2019-01-14T10:36:09.107Z,14.93
2019-01-14T10:38:50.165Z,15.43
2019-01-14T10:41:19.566Z,15.60
2019-01-14T10:43:54.204Z,15.20
2019-01-14T10:46:28.804Z,16.15
2019-01-14T10:49:06.757Z,14.38
2019-01-14T10:51:39.748Z,15.43
2019-01-14T10:54:14.307Z,14.70
2019-01-14T10:56:49.577Z,14.90
2019-01-14T10:59:23.885Z,15.48
2019-01-14T11:01:58.524Z,14.95
2019-01-14T11:04:33.268Z,15.43
2019-01-14T11:07:07.495Z,15.23
2019-01-14T11:09:44.622Z,15.60
2019-01-14T11:12:17.558Z,15.32
2019-01-14T11:14:52.136Z,15.45
2019-01-14T11:17:26.404Z,14.93
2019-01-14T11:20:01.113Z,14.50
2019-01-14T11:22:38.292Z,14.93
2019-01-14T11:25:12.429Z,14.98
2019-01-14T11:27:47.335Z,16.82
2019-01-14T11:30:24.327Z,15.25
2019-01-14T11:32:58.778Z,15.03
2019-01-14T11:35:33.648Z,14.73
2019-01-14T11:38:09.236Z,15.80
2019-01-14T11:40:45.286Z,15.48
2019-01-14T11:43:20.326Z,15.55
2019-01-14T11:45:54.856Z,16.00
2019-01-14T11:48:29.418Z,15.55
2019-01-14T11:51:03.496Z,15.35
2019-01-14T11:53:38.689Z,15.45
2019-01-14T11:56:12.927Z,16.02
2019-01-14T11:58:47.716Z,16.67
2019-01-14T12:01:22.090Z,15.68
2019-01-14T12:03:56.471Z,15.68
2019-01-14T12:06:30.958Z,16.07
2019-01-14T12:09:12.203Z,15.40
2019-01-14T12:11:43.130Z,15.85
2019-01-14T12:14:17.751Z,15.83
2019-01-14T12:16:52.126Z,15.80
2019-01-14T12:19:26.575Z,15.58
2019-01-14T12:22:00.755Z,16.77
2019-01-14T12:24:35.217Z,16.50
2019-01-14T12:27:09.649Z,16.00
2019-01-14T12:29:44.287Z,17.15
2019-01-14T12:32:18.744Z,17.02
2019-01-14T12:34:53.165Z,16.97
2019-01-14T12:37:27.456Z,16.45
2019-01-14T12:40:01.933Z,16.97
2019-01-14T12:42:36.378Z,17.92
2019-01-14T12:45:11.914Z,17.45
2019-01-14T12:47:45.783Z,17.00
2019-01-14T12:50:20.982Z,18.40
2019-01-14T12:52:54.703Z,17.25
2019-01-14T12:55:30.213Z,18.50
2019-01-14T12:58:04.805Z,18.48
2019-01-14T13:00:39.356Z,17.37
2019-01-14T13:03:14.266Z,17.75
2019-01-14T13:05:48.835Z,17.73
2019-01-14T13:08:22.966Z,18.37
2019-01-14T13:10:57.353Z,17.85
2019-01-14T13:13:31.622Z,18.55
2019-01-14T13:16:06.176Z,19.52
2019-01-14T13:18:40.348Z,18.73
2019-01-14T13:21:15.192Z,18.35
2019-01-14T13:23:49.736Z,18.87
2019-01-14T13:26:24.496Z,18.17
2019-01-14T13:28:58.902Z,17.80
2019-01-14T13:31:33.763Z,18.07
2019-01-14T13:34:08.202Z,18.12
2019-01-14T13:36:42.891Z,18.75
2019-01-14T13:39:17.199Z,17.47
2019-01-14T13:41:52.755Z,16.97
2019-01-14T13:44:27.401Z,17.52
2019-01-14T13:47:02.711Z,17.20
2019-01-14T13:49:37.137Z,18.10
2019-01-14T13:52:11.901Z,16.80
2019-01-14T13:54:46.368Z,17.12
2019-01-14T13:57:21.656Z,18.12
2019-01-14T13:59:56.123Z,16.60
2019-01-14T14:02:30.985Z,17.95
2019-01-14T14:05:10.013Z,18.10
2019-01-14T14:07:44.907Z,17.57
2019-01-14T14:10:27.250Z,18.32
2019-01-14T14:13:02.020Z,17.30
2019-01-14T14:15:36.393Z,18.35
2019-01-14T14:18:11.268Z,18.57
2019-01-14T14:20:45.711Z,18.00
2019-01-14T14:23:20.830Z,18.60
2019-01-14T14:25:55.466Z,18.10
2019-01-14T14:28:30.763Z,18.80
2019-01-14T14:31:04.917Z,18.35
2019-01-14T14:33:39.637Z,18.85
2019-01-14T14:36:14.264Z,19.40
2019-01-14T14:38:48.437Z,19.10
2019-01-14T14:41:23.056Z,18.52
2019-01-14T14:43:57.815Z,19.07
2019-01-14T14:46:32.369Z,19.20
2019-01-14T14:49:06.726Z,18.85
2019-01-14T14:51:41.341Z,18.67
2019-01-14T14:54:15.898Z,19.40
2019-01-14T14:56:50.606Z,20.08
2019-01-14T14:59:24.869Z,19.95
2019-01-14T15:02:00.277Z,20.63
2019-01-14T15:04:35.653Z,19.62
2019-01-14T15:07:10.116Z,19.25
2019-01-14T15:09:44.323Z,20.68
2019-01-14T15:12:18.885Z,19.87
2019-01-14T15:14:53.414Z,20.17
2019-01-14T15:17:28.090Z,19.67
2019-01-14T15:20:02.887Z,20.15
2019-01-14T15:22:37.676Z,19.50
2019-01-14T15:25:12.203Z,19.33
2019-01-14T15:27:46.411Z,19.75
2019-01-14T15:30:33.873Z,19.98
2019-01-14T15:33:08.648Z,19.23
2019-01-14T15:35:42.888Z,19.23
2019-01-14T15:38:17.861Z,19.42
2019-01-14T15:40:52.397Z,19.07
2019-01-14T15:43:26.829Z,20.10
2019-01-14T15:46:01.218Z,19.55
2019-01-14T15:48:36.096Z,19.62
2019-01-14T15:51:10.832Z,19.20
2019-01-14T15:53:45.687Z,20.12
2019-01-14T15:56:20.553Z,19.92
2019-01-14T15:58:54.695Z,19.32
2019-01-14T16:01:29.467Z,19.67
2019-01-14T16:04:04.323Z,20.37
2019-01-14T16:06:38.788Z,18.95
2019-01-14T16:09:14.238Z,21.02
2019-01-14T16:11:48.474Z,18.75
2019-01-14T16:14:22.923Z,20.45
2019-01-14T16:16:57.576Z,19.62
2019-01-14T16:19:32.152Z,20.32
2019-01-14T16:22:06.663Z,19.90
2019-01-14T16:24:40.811Z,18.23
2019-01-14T16:27:15.937Z,19.17
2019-01-14T16:29:50.055Z,19.57
2019-01-14T16:32:24.587Z,19.00
2019-01-14T16:34:59.510Z,18.23
2019-01-14T16:37:33.932Z,19.90
2019-01-14T16:40:10.259Z,18.95
2019-01-14T16:42:44.731Z,19.50
2019-01-14T16:45:22.321Z,18.40
2019-01-14T16:47:57.240Z,18.85
2019-01-14T16:50:32.045Z,19.42
2019-01-14T16:53:06.720Z,19.65
2019-01-14T16:55:53.064Z,17.75
2019-01-14T16:58:27.508Z,18.62
2019-01-14T17:01:02.040Z,18.60
2019-01-14T17:03:36.378Z,18.27
2019-01-14T17:06:11.105Z,18.27
2019-01-14T17:08:46.227Z,18.02
2019-01-14T17:11:20.848Z,19.32
2019-01-14T17:13:55.435Z,17.98
2019-01-14T17:16:30.394Z,17.85
2019-01-14T17:19:04.833Z,18.40
2019-01-14T17:21:39.267Z,17.45
2019-01-14T17:24:13.944Z,17.27
2019-01-14T17:26:48.483Z,17.48
2019-01-14T17:29:22.925Z,17.73
2019-01-14T17:31:57.627Z,17.12
2019-01-14T17:34:31.987Z,17.90
2019-01-14T17:37:07.247Z,17.45
2019-01-14T17:39:41.781Z,17.35
2019-01-14T17:42:17.094Z,17.92
2019-01-14T17:44:51.688Z,17.07
2019-01-14T17:47:26.315Z,17.48
2019-01-14T17:50:00.877Z,17.23
2019-01-14T17:52:34.895Z,17.73
2019-01-14T17:55:09.634Z,18.32
2019-01-14T17:57:44.334Z,17.30
2019-01-14T18:00:24.280Z,16.57
2019-01-14T18:02:58.390Z,17.67
2019-01-14T18:05:33.574Z,17.12
2019-01-14T18:08:08.011Z,16.33
2019-01-14T18:10:43.266Z,17.02
2019-01-14T18:13:18.266Z,17.00
2019-01-14T18:15:53.569Z,16.12
2019-01-14T18:18:27.963Z,16.67
2019-01-14T18:21:05.511Z,16.23
2019-01-14T18:23:38.973Z,17.12
2019-01-14T18:26:13.529Z,16.47
2019-01-14T18:28:48.414Z,16.37
2019-01-14T18:31:22.993Z,17.55
2019-01-14T18:33:57.470Z,16.25
2019-01-14T18:36:31.846Z,16.07
2019-01-14T18:39:06.684Z,16.80
2019-01-14T18:41:41.380Z,18.10
2019-01-14T18:44:16.278Z,16.33
2019-01-14T18:46:50.741Z,15.70
2019-01-14T18:49:25.479Z,16.70
2019-01-14T18:51:59.641Z,16.45
2019-01-14T18:54:36.740Z,16.30
2019-01-14T18:57:11.305Z,16.60
2019-01-14T18:59:46.005Z,16.90
2019-01-14T19:02:20.889Z,15.53
2019-01-14T19:04:55.077Z,16.50
2019-01-14T19:07:29.601Z,16.52
2019-01-14T19:10:04.283Z,16.12
2019-01-14T19:12:39.521Z,17.25
2019-01-14T19:15:17.030Z,16.02
2019-01-14T19:17:51.925Z,15.77
2019-01-14T19:20:30.913Z,16.07
2019-01-14T19:23:06.269Z,17.23
2019-01-14T19:25:41.343Z,16.60
2019-01-14T19:28:15.799Z,16.60
2019-01-14T19:30:50.735Z,16.97
2019-01-14T19:33:25.293Z,16.23
2019-01-14T19:35:59.856Z,16.07
2019-01-14T19:38:34.413Z,16.30
2019-01-14T19:41:09.060Z,17.10
2019-01-14T19:43:43.644Z,17.20
2019-01-14T19:46:18.590Z,17.10
2019-01-14T19:48:53.232Z,16.73
2019-01-14T19:51:28.366Z,15.87
2019-01-14T19:54:02.595Z,15.55
2019-01-14T19:56:37.306Z,17.50
2019-01-14T19:59:12.096Z,16.67
2019-01-14T20:01:46.335Z,16.60
2019-01-14T20:04:21.201Z,16.93
2019-01-14T20:06:55.286Z,17.07
2019-01-14T20:09:29.858Z,15.97
2019-01-14T20:12:04.312Z,17.23
2019-01-14T20:14:39.326Z,16.35
2019-01-14T20:17:13.634Z,15.83
2019-01-14T20:19:48.348Z,15.95
2019-01-14T20:22:25.286Z,16.20
2019-01-14T20:25:00.233Z,16.77
2019-01-14T20:27:34.783Z,16.37
2019-01-14T20:30:10.840Z,16.83
2019-01-14T20:32:45.345Z,16.12
2019-01-14T20:35:19.996Z,16.32
2019-01-14T20:37:54.623Z,16.00
2019-01-14T20:40:28.881Z,17.27
2019-01-14T20:43:04.082Z,16.60
2019-01-14T20:45:38.698Z,16.00
2019-01-14T20:48:13.378Z,16.67
2019-01-14T20:50:47.850Z,16.15
2019-01-14T20:53:22.410Z,16.00
2019-01-14T20:55:56.439Z,15.07
2019-01-14T20:58:31.011Z,17.00
2019-01-14T21:01:05.873Z,16.50
2019-01-14T21:03:40.461Z,16.20
2019-01-14T21:06:15.330Z,15.63
2019-01-14T21:08:51.006Z,15.77
2019-01-14T21:11:25.397Z,15.93
2019-01-14T21:14:00.117Z,16.30
2019-01-14T21:16:35.307Z,16.40
2019-01-14T21:19:09.430Z,16.03
2019-01-14T21:21:44.145Z,16.40
2019-01-14T21:24:18.572Z,16.43
2019-01-14T21:26:53.055Z,16.20
2019-01-14T21:29:27.348Z,15.93
2019-01-14T21:32:01.670Z,16.20
2019-01-14T21:34:36.083Z,16.53
2019-01-14T21:37:11.052Z,16.23
2019-01-14T21:39:45.440Z,15.93
2019-01-14T21:42:19.970Z,16.67
2019-01-14T21:44:54.970Z,15.65
2019-01-14T21:47:32.704Z,16.57
2019-01-14T21:50:05.307Z,16.00
2019-01-14T21:52:39.744Z,15.95
2019-01-14T21:55:16.050Z,16.93
2019-01-14T21:57:50.710Z,15.37
2019-01-14T22:00:26.454Z,17.23
2019-01-14T22:03:01.579Z,16.67
2019-01-14T22:05:36.018Z,16.93
2019-01-14T22:08:10.891Z,16.23
2019-01-14T22:10:45.355Z,16.40
2019-01-14T22:13:20.204Z,16.70
2019-01-14T22:15:54.541Z,16.90
2019-01-14T22:18:29.876Z,16.83
2019-01-14T22:21:04.682Z,16.62
2019-01-14T22:23:39.480Z,16.57
2019-01-14T22:26:13.730Z,17.55
2019-01-14T22:28:48.658Z,18.17
2019-01-14T22:31:23.457Z,17.47
2019-01-14T22:33:57.615Z,17.32
2019-01-14T22:36:31.752Z,16.70
2019-01-14T22:39:08.161Z,18.15
2019-01-14T22:41:45.878Z,17.05
2019-01-14T22:44:18.714Z,17.77
2019-01-14T22:46:53.254Z,16.53
2019-01-14T22:49:27.830Z,17.20
2019-01-14T22:52:02.657Z,17.25
2019-01-14T22:54:41.970Z,18.13
2019-01-14T22:57:16.865Z,17.13
2019-01-14T22:59:51.237Z,17.42
2019-01-14T23:02:25.875Z,17.57
2019-01-14T23:05:00.523Z,17.30
2019-01-14T23:07:35.520Z,17.57
2019-01-14T23:10:09.946Z,18.02
2019-01-14T23:12:44.720Z,17.80
2019-01-14T23:15:19.121Z,16.73
2019-01-14T23:17:53.740Z,17.83
2019-01-14T23:20:29.270Z,17.33
2019-01-14T23:23:04.250Z,16.83
2019-01-14T23:25:38.363Z,17.50
2019-01-14T23:28:13.210Z,17.83
2019-01-14T23:30:47.975Z,18.12
2019-01-14T23:33:22.210Z,17.43
2019-01-14T23:35:57.062Z,18.43
2019-01-14T23:38:31.382Z,18.75
2019-01-14T23:41:05.710Z,18.87
2019-01-14T23:43:40.329Z,19.55
2019-01-14T23:46:14.730Z,18.63
2019-01-14T23:48:49.517Z,18.43
2019-01-14T23:51:23.792Z,18.57
2019-01-14T23:53:59.688Z,18.97
2019-01-14T23:56:33.829Z,18.37
2019-01-14T23:59:10.814Z,18.43
